createdAt,value
2018-04-18T00:00:38.890Z,17.07
2018-04-18T00:03:07.141Z,16.30
2018-04-18T00:05:36.769Z,17.93
2018-04-18T00:08:06.022Z,18.10
2018-04-18T00:10:34.264Z,16.80
2018-04-18T00:13:02.573Z,18.93
2018-04-18T00:15:31.576Z,19.47
2018-04-18T00:17:59.826Z,19.60
2018-04-18T00:20:31.343Z,20.23
2018-04-18T00:22:59.986Z,20.97
2018-04-18T00:25:28.224Z,19.40
2018-04-18T00:27:57.084Z,19.20
2018-04-18T00:30:26.095Z,21.33
2018-04-18T00:32:55.099Z,21.37
2018-04-18T00:35:23.575Z,18.40
2018-04-18T00:37:52.586Z,19.07
2018-04-18T00:40:21.583Z,18.67
2018-04-18T00:42:50.672Z,20.43
2018-04-18T00:45:19.680Z,20.43
2018-04-18T00:47:49.502Z,21.50
2018-04-18T00:50:17.750Z,20.03
2018-04-18T00:52:45.987Z,19.00
2018-04-18T00:55:14.227Z,20.87
2018-04-18T00:57:43.331Z,21.13
2018-04-18T01:00:11.580Z,19.60
2018-04-18T01:02:39.823Z,19.90
2018-04-18T01:05:08.104Z,18.10
2018-04-18T01:07:36.356Z,19.70
2018-04-18T01:10:06.095Z,19.40
2018-04-18T01:12:35.719Z,17.23
2018-04-18T01:15:04.236Z,20.57
2018-04-18T01:17:33.246Z,21.13
2018-04-18T01:20:04.822Z,21.00
2018-04-18T01:22:34.578Z,19.33
2018-04-18T01:25:02.812Z,21.00
2018-04-18T01:27:31.129Z,20.80
2018-04-18T01:29:59.768Z,21.47
2018-04-18T01:32:28.823Z,20.50
2018-04-18T01:34:57.118Z,19.20
2018-04-18T01:37:27.719Z,20.23
2018-04-18T01:39:55.954Z,21.10
2018-04-18T01:42:25.647Z,19.63
2018-04-18T01:44:53.896Z,21.30
2018-04-18T01:47:23.483Z,19.00
2018-04-18T01:49:52.768Z,21.03
2018-04-18T01:52:21.773Z,19.90
2018-04-18T01:54:50.015Z,19.10
2018-04-18T01:57:18.295Z,18.73
2018-04-18T01:59:46.534Z,19.20
2018-04-18T02:02:14.784Z,19.87
2018-04-18T02:04:44.930Z,18.90
2018-04-18T02:07:13.179Z,18.60
2018-04-18T02:09:41.414Z,19.33
2018-04-18T02:12:10.887Z,23.83
2018-04-18T02:14:39.132Z,22.40
2018-04-18T02:17:07.362Z,20.80
2018-04-18T02:19:36.434Z,21.77
2018-04-18T02:22:05.071Z,22.57
2018-04-18T02:24:33.312Z,20.93
2018-04-18T02:27:01.877Z,21.40
2018-04-18T02:29:30.118Z,23.53
2018-04-18T02:31:58.360Z,22.43
2018-04-18T02:34:26.644Z,20.20
2018-04-18T02:36:54.880Z,20.80
2018-04-18T02:39:24.626Z,21.17
2018-04-18T02:41:54.343Z,20.00
2018-04-18T02:44:22.574Z,22.10
2018-04-18T02:46:52.322Z,21.00
2018-04-18T02:49:23.683Z,21.00
2018-04-18T02:51:52.539Z,19.77
2018-04-18T02:54:20.787Z,21.60
2018-04-18T02:56:50.551Z,20.30
2018-04-18T02:59:19.435Z,21.10
2018-04-18T03:01:49.159Z,18.43
2018-04-18T03:04:17.470Z,20.67
2018-04-18T03:06:47.074Z,18.87
2018-04-18T03:09:15.311Z,20.07
2018-04-18T03:11:44.539Z,19.57
2018-04-18T03:14:13.554Z,22.13
2018-04-18T03:16:42.562Z,18.13
2018-04-18T03:19:10.996Z,19.37
2018-04-18T03:21:40.578Z,19.60
2018-04-18T03:24:08.694Z,17.67
2018-04-18T03:26:38.254Z,17.83
2018-04-18T03:29:06.451Z,16.77
2018-04-18T03:31:36.194Z,17.43
2018-04-18T03:34:04.907Z,18.00
2018-04-18T03:36:34.647Z,18.10
2018-04-18T03:39:02.890Z,16.60
2018-04-18T03:41:31.170Z,16.17
2018-04-18T03:43:59.406Z,17.27
2018-04-18T03:46:27.643Z,15.67
2018-04-18T03:48:57.533Z,16.60
2018-04-18T03:51:25.767Z,14.70
2018-04-18T03:53:54.743Z,15.30
2018-04-18T03:56:23.443Z,16.13
2018-04-18T03:58:53.040Z,15.87
2018-04-18T04:01:21.559Z,15.20
2018-04-18T04:03:53.448Z,16.13
2018-04-18T04:06:22.079Z,16.27
2018-04-18T04:08:50.318Z,16.57
2018-04-18T04:11:18.767Z,15.23
2018-04-18T04:13:47.003Z,16.40
2018-04-18T04:19:27.556Z,15.57
2018-04-18T04:22:07.997Z,14.50
2018-04-18T04:24:39.290Z,14.43
2018-04-18T04:27:07.528Z,15.00
2018-04-18T04:29:35.795Z,13.93
2018-04-18T04:32:04.030Z,14.17
2018-04-18T04:34:32.272Z,15.03
2018-04-18T04:37:01.760Z,14.63
2018-04-18T04:39:29.937Z,13.70
2018-04-18T04:41:58.175Z,14.73
2018-04-18T04:44:26.483Z,14.20
2018-04-18T04:46:54.723Z,14.63
2018-04-18T04:49:22.963Z,14.13
2018-04-18T04:51:52.011Z,14.67
2018-04-18T04:54:21.191Z,14.50
2018-04-18T04:56:50.193Z,13.33
2018-04-18T04:59:18.682Z,12.73
2018-04-18T05:01:46.931Z,13.87
2018-04-18T05:04:15.156Z,13.43
2018-04-18T05:06:43.734Z,14.03
2018-04-18T05:09:12.735Z,14.30
2018-04-18T05:11:40.978Z,13.67
2018-04-18T05:14:09.456Z,15.33
2018-04-18T05:16:37.693Z,13.40
2018-04-18T05:19:05.923Z,13.97
2018-04-18T05:21:34.526Z,13.20
2018-04-18T05:24:03.166Z,14.30
2018-04-18T05:26:31.414Z,13.80
2018-04-18T05:28:59.708Z,13.47
2018-04-18T05:31:27.949Z,13.07
2018-04-18T05:33:56.187Z,15.37
2018-04-18T05:36:24.459Z,12.47
2018-04-18T05:38:52.703Z,14.40
2018-04-18T05:41:20.948Z,14.70
2018-04-18T05:43:49.227Z,13.53
2018-04-18T05:46:18.231Z,15.00
2018-04-18T05:48:46.467Z,13.07
2018-04-18T05:51:14.750Z,14.17
2018-04-18T05:53:43.758Z,14.83
2018-04-18T05:56:11.994Z,13.97
2018-04-18T05:58:42.439Z,14.07
2018-04-18T06:01:12.034Z,13.20
2018-04-18T06:03:40.147Z,13.50
2018-04-18T06:06:08.481Z,14.07
2018-04-18T06:08:38.178Z,13.40
2018-04-18T06:11:08.106Z,13.50
2018-04-18T06:13:36.931Z,13.77
2018-04-18T06:16:06.302Z,12.97
2018-04-18T06:18:34.574Z,13.73
2018-04-18T06:21:03.579Z,12.73
2018-04-18T06:23:31.821Z,14.77
2018-04-18T06:26:00.098Z,11.97
2018-04-18T06:28:29.107Z,13.33
2018-04-18T06:30:57.351Z,12.37
2018-04-18T06:33:25.635Z,11.30
2018-04-18T06:35:54.643Z,11.50
2018-04-18T06:38:23.650Z,12.33
2018-04-18T06:40:51.929Z,12.00
2018-04-18T06:43:21.431Z,11.53
2018-04-18T06:45:49.685Z,11.53
2018-04-18T06:48:19.089Z,11.50
2018-04-18T06:50:47.334Z,12.40
2018-04-18T06:53:16.329Z,10.03
2018-04-18T06:55:45.471Z,11.00
2018-04-18T06:58:14.475Z,10.40
2018-04-18T07:00:43.851Z,10.83
2018-04-18T07:03:12.126Z,11.10
2018-04-18T07:05:40.372Z,11.27
2018-04-18T07:08:08.600Z,11.03
2018-04-18T07:10:36.891Z,10.70
2018-04-18T07:13:05.126Z,13.00
2018-04-18T07:15:34.714Z,10.90
2018-04-18T07:18:02.874Z,11.03
2018-04-18T07:20:31.107Z,11.30
2018-04-18T07:22:59.357Z,10.47
2018-04-18T07:25:28.767Z,11.40
2018-04-18T07:27:57.007Z,12.40
2018-04-18T07:30:26.602Z,10.80
2018-04-18T07:32:55.151Z,10.70
2018-04-18T07:35:23.389Z,11.70
2018-04-18T07:37:51.631Z,11.07
2018-04-18T07:40:19.939Z,11.27
2018-04-18T07:42:48.171Z,10.93
2018-04-18T07:45:16.411Z,12.10
2018-04-18T07:47:44.687Z,12.07
2018-04-18T07:50:12.927Z,11.67
2018-04-18T07:52:41.935Z,10.37
2018-04-18T07:55:10.222Z,11.83
2018-04-18T07:57:38.860Z,11.10
2018-04-18T08:00:08.234Z,10.77
2018-04-18T08:02:36.519Z,13.57
2018-04-18T08:05:04.755Z,11.97
2018-04-18T08:07:32.994Z,14.17
2018-04-18T08:10:02.035Z,10.80
2018-04-18T08:12:31.051Z,11.73
2018-04-18T08:15:00.040Z,9.97
2018-04-18T08:17:29.066Z,11.30
2018-04-18T08:19:58.079Z,12.10
2018-04-18T08:22:27.496Z,11.33
2018-04-18T08:24:55.739Z,11.00
2018-04-18T08:27:23.978Z,13.33
2018-04-18T08:29:52.252Z,12.90
2018-04-18T08:32:20.488Z,11.07
2018-04-18T08:34:50.083Z,11.70
2018-04-18T08:37:18.228Z,11.63
2018-04-18T08:39:46.467Z,10.70
2018-04-18T08:42:14.744Z,7.43
2018-04-18T08:44:43.371Z,8.17
2018-04-18T08:47:12.383Z,6.50
2018-04-18T08:49:41.434Z,6.73
2018-04-18T08:52:10.796Z,6.83
2018-04-18T08:54:39.022Z,7.90
2018-04-18T08:57:08.050Z,7.33
2018-04-18T08:59:37.047Z,7.40
2018-04-18T09:02:05.299Z,7.33
2018-04-18T09:04:33.552Z,6.00
2018-04-18T09:07:03.123Z,6.57
2018-04-18T09:09:32.615Z,7.70
2018-04-18T09:12:01.490Z,6.87
2018-04-18T09:14:29.728Z,7.10
2018-04-18T09:16:58.003Z,5.93
2018-04-18T09:19:26.231Z,6.17
2018-04-18T09:21:54.468Z,5.90
2018-04-18T09:24:22.755Z,5.43
2018-04-18T09:26:52.497Z,6.87
2018-04-18T09:29:22.102Z,5.10
2018-04-18T09:31:50.627Z,4.90
2018-04-18T09:34:19.620Z,4.93
2018-04-18T09:36:49.247Z,4.43
2018-04-18T09:39:17.363Z,7.60
2018-04-18T09:41:46.727Z,8.03
2018-04-18T09:44:16.146Z,7.83
2018-04-18T09:46:45.138Z,6.40
2018-04-18T09:49:14.163Z,3.90
2018-04-18T09:51:43.568Z,4.37
2018-04-18T09:54:11.801Z,4.70
2018-04-18T09:56:41.534Z,4.40
2018-04-18T09:59:10.562Z,4.97
2018-04-18T10:01:42.087Z,4.80
2018-04-18T10:04:11.578Z,4.77
2018-04-18T10:06:40.084Z,5.30
2018-04-18T10:09:08.312Z,6.40
2018-04-18T10:11:36.584Z,5.43
2018-04-18T10:14:04.816Z,5.00
2018-04-18T10:16:33.043Z,5.80
2018-04-18T10:19:01.308Z,5.00
2018-04-18T10:21:29.544Z,4.70
2018-04-18T10:23:57.771Z,4.90
2018-04-18T10:26:26.828Z,6.80
2018-04-18T10:28:55.063Z,5.27
2018-04-18T10:31:23.299Z,5.37
2018-04-18T10:33:52.351Z,5.50
2018-04-18T10:36:21.352Z,5.57
2018-04-18T10:38:49.570Z,5.63
2018-04-18T10:41:17.847Z,5.90
2018-04-18T10:43:46.075Z,4.90
2018-04-18T10:46:14.342Z,5.00
2018-04-18T10:48:44.083Z,5.80
2018-04-18T10:51:13.119Z,6.27
2018-04-18T10:53:42.152Z,6.50
2018-04-18T10:56:10.383Z,5.80
2018-04-18T10:58:38.672Z,6.23
2018-04-18T11:01:08.390Z,6.03
2018-04-18T11:03:36.627Z,7.67
2018-04-18T11:06:04.851Z,5.53
2018-04-18T11:08:33.116Z,6.97
2018-04-18T11:11:01.343Z,6.80
2018-04-18T11:13:31.097Z,7.50
2018-04-18T11:16:00.746Z,8.03
2018-04-18T11:18:29.248Z,7.27
2018-04-18T11:20:58.252Z,6.97
2018-04-18T11:23:27.865Z,7.63
2018-04-18T11:25:55.979Z,6.77
2018-04-18T11:28:24.203Z,7.93
2018-04-18T11:30:53.984Z,7.83
2018-04-18T11:33:22.224Z,7.40
2018-04-18T11:35:51.588Z,8.43
2018-04-18T11:38:20.256Z,8.70
2018-04-18T11:40:49.255Z,8.40
2018-04-18T11:43:19.002Z,8.60
2018-04-18T11:45:47.266Z,9.40
2018-04-18T11:48:15.503Z,9.77
2018-04-18T11:50:45.082Z,9.87
2018-04-18T11:53:14.784Z,8.43
2018-04-18T11:55:43.787Z,8.43
2018-04-18T11:58:12.032Z,10.27
2018-04-18T12:00:41.650Z,8.30
2018-04-18T12:03:09.755Z,9.97
2018-04-18T12:05:39.491Z,10.83
2018-04-18T12:08:08.527Z,9.73
2018-04-18T12:10:37.516Z,9.10
2018-04-18T12:13:06.519Z,10.30
2018-04-18T12:15:34.791Z,9.03
2018-04-18T12:18:03.796Z,8.13
2018-04-18T12:20:32.032Z,9.40
2018-04-18T12:23:00.330Z,8.97
2018-04-18T12:25:30.072Z,9.57
2018-04-18T12:27:58.298Z,9.67
2018-04-18T12:30:26.972Z,10.50
2018-04-18T12:32:55.209Z,10.30
2018-04-18T12:35:24.798Z,8.70
2018-04-18T12:37:54.307Z,9.00
2018-04-18T12:40:22.816Z,9.67
2018-04-18T12:42:51.047Z,8.43
2018-04-18T12:45:19.315Z,9.07
2018-04-18T12:47:47.547Z,9.83
2018-04-18T12:50:17.287Z,8.73
2018-04-18T12:52:45.560Z,11.10
2018-04-18T12:55:14.067Z,10.30
2018-04-18T12:57:42.307Z,11.13
2018-04-18T13:00:11.771Z,9.80
2018-04-18T13:02:40.011Z,9.83
2018-04-18T13:05:08.243Z,10.03
2018-04-18T13:07:37.286Z,12.87
2018-04-18T13:10:06.286Z,11.33
2018-04-18T13:12:35.303Z,12.90
2018-04-18T13:15:04.735Z,12.00
2018-04-18T13:17:34.487Z,11.90
2018-04-18T13:20:04.256Z,9.17
2018-04-18T13:22:33.631Z,11.20
2018-04-18T13:25:01.854Z,9.90
2018-04-18T13:27:31.482Z,9.30
2018-04-18T13:29:59.595Z,12.53
2018-04-18T13:32:27.836Z,11.50
2018-04-18T13:34:56.144Z,9.83
2018-04-18T13:37:24.375Z,10.40
2018-04-18T13:39:53.747Z,12.80
2018-04-18T13:42:22.048Z,13.63
2018-04-18T13:44:50.282Z,12.63
2018-04-18T13:47:19.866Z,9.87
2018-04-18T13:49:48.783Z,12.07
2018-04-18T13:52:18.535Z,9.87
2018-04-18T13:54:46.780Z,10.17
2018-04-18T13:57:15.106Z,12.83
2018-04-18T13:59:43.347Z,11.10
2018-04-18T14:02:12.974Z,12.10
2018-04-18T14:04:41.087Z,12.80
2018-04-18T14:07:09.318Z,13.30
2018-04-18T14:09:39.062Z,12.40
2018-04-18T14:12:08.086Z,12.60
2018-04-18T14:14:37.090Z,15.40
2018-04-18T14:17:06.142Z,14.80
2018-04-18T14:19:34.383Z,13.83
2018-04-18T14:22:03.385Z,15.40
2018-04-18T14:24:31.652Z,13.80
2018-04-18T14:26:59.887Z,13.77
2018-04-18T14:29:28.163Z,14.50
2018-04-18T14:31:56.436Z,13.37
2018-04-18T14:34:24.639Z,14.40
2018-04-18T14:36:54.049Z,15.50
2018-04-18T14:39:22.290Z,13.30
2018-04-18T14:41:50.528Z,11.77
2018-04-18T14:44:18.856Z,13.33
2018-04-18T14:46:47.095Z,12.20
2018-04-18T14:49:15.341Z,11.73
2018-04-18T14:51:43.617Z,11.80
2018-04-18T14:54:11.851Z,11.93
2018-04-18T14:56:40.097Z,11.67
2018-04-18T14:59:09.171Z,12.30
2018-04-18T15:01:37.407Z,12.40
2018-04-18T15:04:06.407Z,12.93
2018-04-18T15:06:36.035Z,11.40
2018-04-18T15:09:04.144Z,11.47
2018-04-18T15:11:33.185Z,10.20
2018-04-18T15:14:01.864Z,10.30
2018-04-18T15:16:30.866Z,10.77
2018-04-18T15:18:59.107Z,12.90
2018-04-18T15:21:28.155Z,10.77
2018-04-18T15:23:56.391Z,9.87
2018-04-18T15:26:24.630Z,9.57
2018-04-18T15:28:54.422Z,8.73
2018-04-18T15:31:22.664Z,8.40
2018-04-18T15:33:52.243Z,7.70
2018-04-18T15:36:20.783Z,9.27
2018-04-18T15:38:50.368Z,10.13
2018-04-18T15:41:19.244Z,8.17
2018-04-18T15:43:47.510Z,10.57
2018-04-18T15:46:15.756Z,11.80
2018-04-18T15:48:44.002Z,10.63
2018-04-18T15:51:12.268Z,7.87
2018-04-18T15:53:41.641Z,7.97
2018-04-18T15:56:09.876Z,7.40
2018-04-18T15:58:38.158Z,7.80
2018-04-18T16:01:06.412Z,7.17
2018-04-18T16:03:36.157Z,6.00
2018-04-18T16:06:05.210Z,5.70
2018-04-18T16:08:34.202Z,5.03
2018-04-18T16:11:02.431Z,4.50
2018-04-18T16:13:30.707Z,4.77
2018-04-18T16:16:00.281Z,6.30
2018-04-18T16:18:29.519Z,4.90
2018-04-18T16:20:58.577Z,4.90
2018-04-18T16:23:27.571Z,5.83
2018-04-18T16:25:56.932Z,3.83
2018-04-18T16:28:25.955Z,4.27
2018-04-18T16:30:55.578Z,5.27
2018-04-18T16:33:23.683Z,5.03
2018-04-18T16:35:53.414Z,4.90
2018-04-18T16:38:22.459Z,4.80
2018-04-18T16:40:50.686Z,4.20
2018-04-18T16:43:19.680Z,3.70
2018-04-18T16:45:47.955Z,2.93
2018-04-18T16:48:16.950Z,3.80
2018-04-18T16:50:45.193Z,2.70
2018-04-18T16:53:14.591Z,3.00
2018-04-18T16:55:42.815Z,3.50
2018-04-18T16:58:12.551Z,3.00
2018-04-18T17:00:40.839Z,3.10
2018-04-18T17:03:11.978Z,3.40
2018-04-18T17:05:41.003Z,2.80
2018-04-18T17:08:10.601Z,3.33
2018-04-18T17:10:39.095Z,4.80
2018-04-18T17:13:08.143Z,4.43
2018-04-18T17:15:37.147Z,4.57
2018-04-18T17:18:06.763Z,3.37
2018-04-18T17:20:36.438Z,3.10
2018-04-18T17:23:06.015Z,3.47
2018-04-18T17:25:34.119Z,3.83
2018-04-18T17:28:02.374Z,3.20
2018-04-18T17:30:30.604Z,3.93
2018-04-18T17:32:58.827Z,3.77
2018-04-18T17:35:27.567Z,3.67
2018-04-18T17:37:56.182Z,3.27
2018-04-18T17:40:25.182Z,3.50
2018-04-18T17:42:53.450Z,3.60
2018-04-18T17:45:21.671Z,3.60
2018-04-18T17:47:50.667Z,3.53
2018-04-18T17:50:20.832Z,4.10
2018-04-18T17:52:49.061Z,3.70
2018-04-18T17:55:18.636Z,3.57
2018-04-18T17:57:47.182Z,6.70
2018-04-18T18:00:15.435Z,47.13
2018-04-18T18:02:44.414Z,33.13
2018-04-18T18:05:14.075Z,15.13
2018-04-18T18:07:42.218Z,8.50
2018-04-18T18:10:10.446Z,6.50
2018-04-18T18:12:38.736Z,4.23
2018-04-18T18:15:06.962Z,3.50
2018-04-18T18:17:35.956Z,2.67
2018-04-18T18:20:04.415Z,3.43
2018-04-18T18:22:34.139Z,3.10
2018-04-18T18:25:02.371Z,3.77
2018-04-18T18:27:30.639Z,3.33
2018-04-18T18:29:58.858Z,3.30
2018-04-18T18:32:28.435Z,3.60
2018-04-18T18:34:56.977Z,4.53
2018-04-18T18:37:25.207Z,3.37
2018-04-18T18:39:54.938Z,4.60
2018-04-18T18:42:23.209Z,4.50
2018-04-18T18:44:51.427Z,6.00
2018-04-18T18:47:19.665Z,5.87
2018-04-18T18:49:49.570Z,21.67
2018-04-18T18:52:17.747Z,29.30
2018-04-18T18:54:45.991Z,13.07
2018-04-18T18:57:14.431Z,10.50
2018-04-18T18:59:42.672Z,8.03
2018-04-18T19:02:11.306Z,9.80
2018-04-18T19:04:40.344Z,9.07
2018-04-18T19:07:08.584Z,10.70
2018-04-18T19:09:36.832Z,10.03
2018-04-18T19:12:05.509Z,7.70
2018-04-18T19:14:35.087Z,8.87
2018-04-18T19:17:04.710Z,9.23
2018-04-18T19:19:33.759Z,10.10
2018-04-18T19:22:01.998Z,10.10
2018-04-18T19:24:31.015Z,11.23
2018-04-18T19:26:59.306Z,10.80
2018-04-18T19:29:27.547Z,11.97
2018-04-18T19:31:57.502Z,11.73
2018-04-18T19:34:26.562Z,10.23
2018-04-18T19:36:55.575Z,11.50
2018-04-18T19:39:23.819Z,12.20
2018-04-18T19:41:52.112Z,11.00
2018-04-18T19:44:20.342Z,11.53
2018-04-18T19:46:48.586Z,11.77
2018-04-18T19:49:16.900Z,11.50
2018-04-18T19:51:45.135Z,10.87
2018-04-18T19:54:13.371Z,11.03
2018-04-18T19:56:43.031Z,11.40
2018-04-18T19:59:11.287Z,11.57
2018-04-18T20:01:39.512Z,12.10
2018-04-18T20:04:07.800Z,10.80
2018-04-18T20:06:38.243Z,11.37
2018-04-18T20:09:07.276Z,11.27
2018-04-18T20:11:35.549Z,11.13
2018-04-18T20:14:03.795Z,11.37
2018-04-18T20:16:32.062Z,12.53
2018-04-18T20:19:00.298Z,11.70
2018-04-18T20:21:28.574Z,12.03
2018-04-18T20:23:56.820Z,10.40
2018-04-18T20:26:25.816Z,30.47
2018-04-18T20:28:54.094Z,16.07
2018-04-18T20:31:22.339Z,15.20
2018-04-18T20:33:50.580Z,12.77
2018-04-18T20:36:20.378Z,10.57
2018-04-18T20:38:48.628Z,11.60
2018-04-18T20:41:18.370Z,11.37
2018-04-18T20:43:46.651Z,10.20
2018-04-18T20:46:16.023Z,12.00
2018-04-18T20:48:45.031Z,11.57
2018-04-18T20:51:13.303Z,11.67
2018-04-18T20:53:41.540Z,10.60
2018-04-18T20:56:11.319Z,10.97
2018-04-18T20:58:39.556Z,10.90
2018-04-18T21:01:09.143Z,11.40
2018-04-18T21:03:37.721Z,11.17
2018-04-18T21:06:05.963Z,38.90
2018-04-18T21:08:35.850Z,42.97
2018-04-18T21:11:05.485Z,13.13
2018-04-18T21:13:34.011Z,12.07
2018-04-18T21:16:03.595Z,11.30
2018-04-18T21:18:32.148Z,11.20
2018-04-18T21:21:00.387Z,11.10
2018-04-18T21:23:29.388Z,11.80
2018-04-18T21:25:58.428Z,10.73
2018-04-18T21:28:27.435Z,14.50
2018-04-18T21:30:56.819Z,11.77
2018-04-18T21:33:25.100Z,12.00
2018-04-18T21:35:53.344Z,13.90
2018-04-18T21:38:21.583Z,11.73
2018-04-18T21:40:51.370Z,13.03
2018-04-18T21:43:19.614Z,12.10
2018-04-18T21:45:49.351Z,12.17
2018-04-18T21:48:18.984Z,12.30
2018-04-18T21:50:48.611Z,12.30
2018-04-18T21:53:18.203Z,13.33
2018-04-18T21:55:47.887Z,11.50
2018-04-18T21:58:16.882Z,10.07
2018-04-18T22:00:45.123Z,11.87
2018-04-18T22:03:14.167Z,12.50
2018-04-18T22:05:42.403Z,12.13
2018-04-18T22:08:10.634Z,12.23
2018-04-18T22:10:38.915Z,10.50
2018-04-18T22:13:07.160Z,10.90
2018-04-18T22:15:35.400Z,12.70
2018-04-18T22:18:03.666Z,10.37
2018-04-18T22:20:31.909Z,12.73
2018-04-18T22:23:00.144Z,13.20
2018-04-18T22:25:29.916Z,12.17
2018-04-18T22:27:58.159Z,12.97
2018-04-18T22:30:27.742Z,12.00
2018-04-18T22:32:55.896Z,12.77
2018-04-18T22:35:25.635Z,12.47
2018-04-18T22:37:54.695Z,12.77
2018-04-18T22:40:24.075Z,12.60
2018-04-18T22:42:52.319Z,13.00
2018-04-18T22:45:22.109Z,12.07
2018-04-18T22:47:50.340Z,12.27
2018-04-18T22:50:19.340Z,12.03
2018-04-18T22:52:48.383Z,14.50
2018-04-18T22:55:16.614Z,12.10
2018-04-18T22:57:46.206Z,12.13
2018-04-18T23:00:21.427Z,13.13
2018-04-18T23:02:49.435Z,11.43
2018-04-18T23:05:17.674Z,11.90
2018-04-18T23:07:47.444Z,11.30
2018-04-18T23:10:15.683Z,13.37
2018-04-18T23:12:43.952Z,12.53
2018-04-18T23:21:08.680Z,13.17
2018-04-18T23:26:37.738Z,12.63
2018-04-18T23:29:06.617Z,12.27
2018-04-18T23:31:36.360Z,10.87
2018-04-18T23:34:04.639Z,11.53
2018-04-18T23:36:33.648Z,11.63
2018-04-18T23:39:02.646Z,10.13
2018-04-18T23:41:30.934Z,11.53
2018-04-18T23:43:59.180Z,10.90
2018-04-18T23:46:28.791Z,10.10
2018-04-18T23:48:57.743Z,10.90
2018-04-18T23:51:25.927Z,8.77
2018-04-18T23:53:54.192Z,9.83
2018-04-18T23:56:22.422Z,8.60
2018-04-18T23:58:52.186Z,7.70
